< < Back
Terminal Aerodrome Forecast


Current Version              Previous Versions:   1  2  3  4  5  6  7  8  9  

Terminal Aerodrome Forecast

024
FTUS42 KILM 310500
TAFILM
TAF
KILM 310535Z 3106/0106 34010G15KT P6SM SCT250
     FM312300 00000KT P6SM SCT200=



Latest METAR

978
SAUS70 KWBC 010500 RRK
MTRILM
METAR KILM 010453Z AUTO 00000KT 10SM CLR 00/M03 A3033 RMK AO2 SLP270
T00001033 401001028


USA.gov is the U.S. government's official web portal to all federal, state and local government web resources and services.